Terminal Aerodrome Forecast
Issued by NWS

Home | Current Version | Previous Version | Text Only | Print | Product List | Glossary On
Versions: 1 2 3 4 5 6 7 8 9 10 11 12 13 14 15 16
000
FTUS45 KVEF 231100 RRA
TAFBIH
TAF
KBIH 231144Z 2312/2412 33006KT P6SM SKC
     FM231800 17012G22KT P6SM FEW110
     FM240200 16010KT P6SM SKC
     FM240700 33006KT P6SM SKC=

USA.gov is the U.S. government's official web portal to all federal, state and local government web resources and services.